createdAt,value
2022-10-01T00:00:23.492Z,14.10
2022-10-01T00:10:30.259Z,14.09
2022-10-01T00:20:34.211Z,14.16
2022-10-01T00:30:40.521Z,14.28
2022-10-01T00:40:43.463Z,14.23
2022-10-01T00:50:49.223Z,14.24
2022-10-01T01:00:55.048Z,14.13
2022-10-01T01:11:08.532Z,13.57
2022-10-01T01:21:29.450Z,13.50
2022-10-01T01:31:37.812Z,13.28
2022-10-01T01:41:52.252Z,12.95
2022-10-01T01:52:04.587Z,12.81
2022-10-01T02:02:08.792Z,12.82
2022-10-01T02:12:24.129Z,12.65
2022-10-01T02:22:37.769Z,12.52
2022-10-01T02:32:46.242Z,12.56
2022-10-01T02:42:53.475Z,12.46
2022-10-01T02:53:06.033Z,12.44
2022-10-01T03:03:08.901Z,12.37
2022-10-01T03:13:13.680Z,12.20
2022-10-01T03:23:16.629Z,12.26
2022-10-01T03:33:20.974Z,12.37
2022-10-01T03:43:24.064Z,12.65
2022-10-01T03:53:29.132Z,12.46
2022-10-01T04:03:32.168Z,12.35
2022-10-01T04:13:37.191Z,12.25
2022-10-01T04:23:40.348Z,12.25
2022-10-01T04:33:44.674Z,12.34
2022-10-01T04:43:47.656Z,12.20
2022-10-01T04:53:52.164Z,11.99
2022-10-01T05:03:55.273Z,11.89
2022-10-01T05:13:59.703Z,11.93
2022-10-01T05:24:03.053Z,12.19
2022-10-01T05:34:07.440Z,12.22
2022-10-01T05:44:10.301Z,12.28
2022-10-01T05:54:16.294Z,12.35
2022-10-01T06:04:19.348Z,12.46
2022-10-01T06:14:23.585Z,12.56
2022-10-01T06:24:26.713Z,12.53
2022-10-01T06:34:30.837Z,12.67
2022-10-01T06:54:55.366Z,12.78
2022-10-01T07:04:59.812Z,12.84
2022-10-01T07:15:05.808Z,12.87
2022-10-01T07:25:09.473Z,13.01
2022-10-01T07:35:13.785Z,13.39
2022-10-01T07:45:16.544Z,13.56
2022-10-01T07:55:21.108Z,13.65
2022-10-01T08:05:26.529Z,13.73
2022-10-01T08:15:30.998Z,13.69
2022-10-01T08:25:34.785Z,13.76
2022-10-01T08:35:41.664Z,13.86
2022-10-01T08:45:49.477Z,14.07
2022-10-01T08:55:56.536Z,14.55
2022-10-01T09:06:13.115Z,14.51
2022-10-01T09:16:25.429Z,14.62
2022-10-01T09:26:28.705Z,14.64
2022-10-01T09:36:40.265Z,14.77
2022-10-01T09:46:46.194Z,14.76
2022-10-01T09:56:56.187Z,15.09
2022-10-01T10:07:05.020Z,15.92
2022-10-01T10:17:16.140Z,16.40
2022-10-01T10:27:27.059Z,16.82
2022-10-01T10:37:34.270Z,17.41
2022-10-01T10:47:46.378Z,16.64
2022-10-01T10:57:54.415Z,17.14
2022-10-01T11:08:04.146Z,17.69
2022-10-01T11:18:33.522Z,18.24
2022-10-01T11:28:47.079Z,18.28
2022-10-01T11:38:57.333Z,18.25
2022-10-01T11:49:05.447Z,18.54
2022-10-01T11:59:17.464Z,18.92
2022-10-01T12:09:27.919Z,19.01
2022-10-01T12:19:35.564Z,19.15
2022-10-01T12:29:48.606Z,19.18
2022-10-01T12:40:06.426Z,18.65
2022-10-01T12:50:27.065Z,18.98
2022-10-01T13:00:40.824Z,19.74
2022-10-01T13:10:53.523Z,19.32
2022-10-01T13:21:07.122Z,19.38
2022-10-01T13:31:14.872Z,19.66
2022-10-01T13:41:24.110Z,19.61
2022-10-01T13:51:35.919Z,19.93
2022-10-01T14:01:42.258Z,19.94
2022-10-01T14:12:05.858Z,19.83
2022-10-01T14:22:24.660Z,19.84
2022-10-01T14:32:40.891Z,19.64
2022-10-01T14:42:45.699Z,19.30
2022-10-01T14:52:51.600Z,18.87
2022-10-01T15:03:10.301Z,18.65
2022-10-01T15:13:20.589Z,18.77
2022-10-01T15:23:26.391Z,18.92
2022-10-01T15:33:31.187Z,18.86
2022-10-01T15:43:40.421Z,18.53
2022-10-01T15:53:43.556Z,18.42
2022-10-01T16:03:54.668Z,18.57
2022-10-01T16:14:21.295Z,18.32
2022-10-01T16:24:29.289Z,18.19
2022-10-01T16:34:32.188Z,18.13
2022-10-01T16:44:40.740Z,17.93
2022-10-01T16:54:44.468Z,17.81
2022-10-01T17:04:48.689Z,17.69
2022-10-01T17:14:51.485Z,17.61
2022-10-01T17:24:55.812Z,17.47
2022-10-01T17:34:59.288Z,17.41
2022-10-01T17:45:05.857Z,17.34
2022-10-01T17:55:11.372Z,17.05
2022-10-01T18:05:17.282Z,16.94
2022-10-01T18:15:22.743Z,16.93
2022-10-01T18:25:27.107Z,16.82
2022-10-01T18:35:35.851Z,16.58
2022-10-01T18:45:53.249Z,16.55
2022-10-01T18:56:27.165Z,16.51
2022-10-01T19:06:49.930Z,16.43
2022-10-01T19:17:03.168Z,16.20
2022-10-01T19:27:19.373Z,16.01
2022-10-01T19:37:30.555Z,15.87
2022-10-01T19:47:41.934Z,16.02
2022-10-01T19:57:45.700Z,15.85
2022-10-01T20:07:59.608Z,15.88
2022-10-01T20:18:14.689Z,16.08
2022-10-01T20:28:25.784Z,16.13
2022-10-01T20:38:35.767Z,16.12
2022-10-01T20:48:43.785Z,15.98
2022-10-01T20:58:50.664Z,15.99
2022-10-01T21:09:01.079Z,15.72
2022-10-01T21:19:18.923Z,15.77
2022-10-01T21:29:49.399Z,15.93
2022-10-01T21:40:03.875Z,15.65
2022-10-01T21:50:21.767Z,15.85
2022-10-01T22:00:29.743Z,15.56
2022-10-01T22:10:39.639Z,15.53
2022-10-01T22:20:44.967Z,15.59
2022-10-01T22:30:52.446Z,15.56
2022-10-01T22:41:02.353Z,15.43
2022-10-01T22:51:18.776Z,15.36
2022-10-01T23:01:30.398Z,15.32
2022-10-01T23:11:46.905Z,15.34
2022-10-01T23:21:58.601Z,15.50
2022-10-01T23:32:17.329Z,15.45
2022-10-01T23:42:28.768Z,15.59
2022-10-01T23:52:39.629Z,15.41
